createdAt,value
2022-11-28T00:00:03.295Z,7.00
2022-11-28T00:03:37.447Z,7.00
2022-11-28T00:07:01.255Z,7.00
2022-11-28T00:10:24.849Z,7.00
2022-11-28T00:13:48.548Z,7.00
2022-11-28T00:17:12.087Z,7.00
2022-11-28T00:20:37.101Z,7.10
2022-11-28T00:24:01.733Z,7.10
2022-11-28T00:27:25.301Z,7.00
2022-11-28T00:30:48.848Z,7.00
2022-11-28T00:34:14.253Z,7.00
2022-11-28T00:37:39.219Z,7.10
2022-11-28T00:41:04.396Z,7.10
2022-11-28T00:44:27.963Z,7.10
2022-11-28T00:47:51.546Z,7.10
2022-11-28T00:51:18.154Z,7.10
2022-11-28T00:54:43.524Z,7.10
2022-11-28T00:58:07.475Z,7.10
2022-11-28T01:01:33.515Z,7.10
2022-11-28T01:04:57.201Z,7.10
2022-11-28T01:08:20.802Z,7.10
2022-11-28T01:11:46.768Z,7.00
2022-11-28T01:15:12.760Z,7.00
2022-11-28T01:18:36.647Z,7.00
2022-11-28T01:22:00.445Z,6.90
2022-11-28T01:25:24.146Z,6.90
2022-11-28T01:28:49.885Z,6.90
2022-11-28T01:32:13.445Z,7.00
2022-11-28T01:35:37.228Z,7.00
2022-11-28T01:39:00.761Z,7.00
2022-11-28T01:42:24.462Z,7.00
2022-11-28T01:45:49.564Z,7.10
2022-11-28T01:49:16.951Z,7.10
2022-11-28T01:52:43.895Z,7.10
2022-11-28T01:56:12.708Z,7.10
2022-11-28T01:59:42.948Z,7.10
2022-11-28T02:03:12.509Z,7.10
2022-11-28T02:06:37.160Z,7.00
2022-11-28T02:10:01.811Z,6.90
2022-11-28T02:13:36.991Z,6.70
2022-11-28T02:17:14.877Z,6.60
2022-11-28T02:21:07.022Z,6.60
2022-11-28T02:24:53.426Z,6.50
2022-11-28T02:28:58.959Z,6.50
2022-11-28T02:32:46.951Z,6.40
2022-11-28T02:36:15.853Z,6.50
2022-11-28T02:39:47.763Z,6.50
2022-11-28T02:43:18.048Z,6.60
2022-11-28T02:46:48.610Z,6.60
2022-11-28T02:50:19.941Z,6.60
2022-11-28T02:53:46.732Z,6.60
2022-11-28T02:57:10.804Z,6.60
2022-11-28T03:00:36.801Z,6.70
2022-11-28T03:04:17.518Z,6.70
2022-11-28T03:07:58.558Z,6.70
2022-11-28T03:11:35.858Z,6.70
2022-11-28T03:15:02.985Z,6.70
2022-11-28T03:18:33.080Z,6.70
2022-11-28T03:22:05.410Z,6.50
2022-11-28T03:25:35.332Z,6.40
2022-11-28T03:29:03.366Z,6.30
2022-11-28T03:32:32.908Z,6.20
2022-11-28T03:36:01.958Z,6.10
2022-11-28T03:39:30.955Z,6.10
2022-11-28T03:43:01.527Z,6.10
2022-11-28T03:46:32.623Z,6.20
2022-11-28T03:50:01.323Z,6.20
2022-11-28T03:53:30.669Z,6.10
2022-11-28T03:57:02.151Z,6.10
2022-11-28T04:00:27.601Z,6.10
2022-11-28T04:03:55.981Z,6.20
2022-11-28T04:07:28.477Z,6.20
2022-11-28T04:10:57.574Z,6.20
2022-11-28T04:14:26.082Z,6.20
2022-11-28T04:17:58.465Z,6.30
2022-11-28T04:21:28.648Z,6.20
2022-11-28T04:24:56.064Z,6.30
2022-11-28T04:28:24.294Z,6.40
2022-11-28T04:31:51.787Z,6.40
2022-11-28T04:35:21.596Z,6.40
2022-11-28T04:38:54.224Z,6.40
2022-11-28T04:42:21.666Z,6.50
2022-11-28T04:45:48.720Z,6.50
2022-11-28T04:49:12.914Z,6.50
2022-11-28T04:52:43.324Z,6.60
2022-11-28T04:56:12.633Z,6.70
2022-11-28T04:59:36.607Z,6.70
2022-11-28T05:03:00.368Z,6.70
2022-11-28T05:06:27.319Z,6.70
2022-11-28T05:09:52.647Z,6.70
2022-11-28T05:13:16.562Z,6.70
2022-11-28T05:16:40.264Z,6.60
2022-11-28T05:20:04.001Z,6.60
2022-11-28T05:23:27.601Z,6.70
2022-11-28T05:26:52.584Z,6.70
2022-11-28T05:30:16.625Z,6.80
2022-11-28T05:33:40.429Z,6.90
2022-11-28T05:37:04.363Z,7.00
2022-11-28T05:40:28.104Z,7.10
2022-11-28T05:43:53.644Z,7.10
2022-11-28T05:47:17.255Z,7.10
2022-11-28T05:50:41.601Z,7.20
2022-11-28T05:54:05.444Z,7.30
2022-11-28T05:57:29.990Z,7.20
2022-11-28T06:00:54.996Z,7.30
2022-11-28T06:04:18.759Z,7.40
2022-11-28T06:07:42.459Z,7.30
2022-11-28T06:11:06.386Z,7.20
2022-11-28T06:14:30.023Z,7.10
2022-11-28T06:17:55.066Z,7.10
2022-11-28T06:21:18.766Z,7.10
2022-11-28T06:24:42.466Z,7.00
2022-11-28T06:28:06.149Z,7.00
2022-11-28T06:31:30.981Z,7.10
2022-11-28T06:34:55.969Z,7.00
2022-11-28T06:38:19.752Z,7.00
2022-11-28T06:41:43.637Z,6.80
2022-11-28T06:45:10.827Z,6.80
2022-11-28T06:48:34.445Z,6.60
2022-11-28T06:51:59.428Z,6.50
2022-11-28T06:55:23.045Z,6.30
2022-11-28T06:58:47.282Z,6.30
2022-11-28T07:02:11.941Z,6.10
2022-11-28T07:05:35.543Z,6.10
2022-11-28T07:09:00.590Z,6.00
2022-11-28T07:12:24.200Z,6.00
2022-11-28T07:15:50.203Z,6.00
2022-11-28T07:19:14.046Z,6.10
2022-11-28T07:22:37.598Z,6.20
2022-11-28T07:26:04.959Z,6.20
2022-11-28T07:29:35.973Z,6.20
2022-11-28T07:32:59.790Z,6.20
2022-11-28T07:36:27.494Z,6.20
2022-11-28T07:39:51.213Z,6.20
2022-11-28T07:43:16.211Z,6.40
2022-11-28T07:46:40.728Z,6.40
2022-11-28T07:50:05.178Z,6.50
2022-11-28T07:53:29.090Z,6.50
2022-11-28T08:00:37.875Z,6.50
2022-11-28T08:04:01.851Z,6.50
2022-11-28T08:07:25.706Z,6.50
2022-11-28T08:10:49.500Z,6.50
2022-11-28T08:14:14.145Z,6.60
2022-11-28T08:17:39.171Z,6.60
2022-11-28T08:21:07.326Z,6.60
2022-11-28T08:24:31.011Z,6.50
2022-11-28T08:27:54.560Z,6.40
2022-11-28T08:31:20.232Z,6.40
2022-11-28T08:34:45.467Z,6.40
2022-11-28T08:38:09.059Z,6.50
2022-11-28T08:41:32.660Z,6.50
2022-11-28T08:44:56.268Z,6.40
2022-11-28T08:48:19.985Z,6.40
2022-11-28T08:51:46.149Z,6.40
2022-11-28T08:55:10.621Z,6.40
2022-11-28T08:58:34.218Z,6.40
2022-11-28T09:01:57.843Z,6.40
2022-11-28T09:05:21.605Z,6.40
2022-11-28T09:08:47.238Z,6.40
2022-11-28T09:12:10.860Z,6.40
2022-11-28T09:15:34.672Z,6.40
2022-11-28T09:18:59.282Z,6.30
2022-11-28T09:22:23.037Z,6.40
2022-11-28T09:25:48.297Z,6.40
2022-11-28T09:29:12.169Z,6.50
2022-11-28T09:32:36.672Z,6.40
2022-11-28T09:36:00.939Z,6.40
2022-11-28T09:39:25.840Z,6.40
2022-11-28T09:42:51.490Z,6.40
2022-11-28T09:46:27.047Z,6.50
2022-11-28T09:49:56.142Z,6.50
2022-11-28T09:53:27.796Z,6.60
2022-11-28T09:56:52.445Z,6.60
2022-11-28T10:00:19.177Z,6.60
2022-11-28T10:03:53.243Z,6.50
2022-11-28T10:07:22.005Z,6.60
2022-11-28T10:10:55.505Z,6.60
2022-11-28T10:14:45.467Z,6.50
2022-11-28T10:18:25.732Z,6.50
2022-11-28T10:21:59.249Z,6.50
2022-11-28T10:25:27.833Z,6.40
2022-11-28T10:28:54.357Z,6.50
2022-11-28T10:32:21.915Z,6.50
2022-11-28T10:35:49.534Z,6.50
2022-11-28T10:39:15.670Z,6.60
2022-11-28T10:42:46.066Z,6.60
2022-11-28T10:46:38.375Z,6.60
2022-11-28T10:50:07.965Z,6.60
2022-11-28T10:53:45.030Z,6.60
2022-11-28T10:57:13.652Z,6.70
2022-11-28T11:00:39.262Z,6.80
2022-11-28T11:04:03.948Z,6.90
2022-11-28T11:07:30.755Z,6.90
2022-11-28T11:11:02.399Z,7.00
2022-11-28T11:14:35.650Z,7.00
2022-11-28T11:18:02.198Z,7.10
2022-11-28T11:21:27.291Z,7.20
2022-11-28T11:25:07.289Z,7.40
2022-11-28T11:28:41.508Z,7.60
2022-11-28T11:32:07.982Z,7.50
2022-11-28T11:35:35.771Z,7.30
2022-11-28T11:39:22.526Z,7.30
2022-11-28T11:42:54.512Z,7.30
2022-11-28T11:46:18.488Z,7.20
2022-11-28T11:49:45.670Z,7.20
2022-11-28T11:53:14.699Z,7.20
2022-11-28T11:56:41.302Z,7.30
2022-11-28T12:00:07.917Z,7.30
2022-11-28T12:03:41.645Z,7.30
2022-11-28T12:07:16.587Z,7.50
2022-11-28T12:10:47.427Z,7.40
2022-11-28T12:14:27.987Z,7.40
2022-11-28T12:18:04.320Z,7.30
2022-11-28T12:21:33.607Z,7.30
2022-11-28T12:25:10.558Z,7.40
2022-11-28T12:28:51.103Z,7.40
2022-11-28T12:32:25.797Z,7.30
2022-11-28T12:36:05.444Z,7.10
2022-11-28T12:39:39.636Z,7.10
2022-11-28T12:43:16.895Z,6.90
2022-11-28T12:46:48.630Z,7.00
2022-11-28T12:50:25.257Z,7.10
2022-11-28T12:54:02.776Z,7.20
2022-11-28T12:57:37.014Z,7.40
2022-11-28T13:01:13.592Z,7.30
2022-11-28T13:04:54.174Z,7.30
2022-11-28T13:08:43.315Z,7.30
2022-11-28T13:12:21.534Z,7.30
2022-11-28T13:16:00.565Z,7.50
2022-11-28T13:19:45.040Z,7.50
2022-11-28T13:23:19.179Z,7.60
2022-11-28T13:26:50.788Z,7.80
2022-11-28T13:30:20.406Z,8.00
2022-11-28T13:33:50.843Z,8.00
2022-11-28T13:41:28.436Z,7.70
2022-11-28T13:45:00.334Z,7.60
2022-11-28T13:49:13.795Z,7.50
2022-11-28T13:52:43.888Z,7.40
2022-11-28T13:56:25.789Z,7.30
2022-11-28T13:59:55.550Z,7.10
2022-11-28T14:03:21.069Z,7.00
2022-11-28T14:06:47.207Z,6.80
2022-11-28T14:10:31.558Z,6.70
2022-11-28T14:14:05.536Z,6.60
2022-11-28T14:17:44.709Z,6.50
2022-11-28T14:21:20.937Z,6.50
2022-11-28T14:24:57.968Z,6.50
2022-11-28T14:28:26.468Z,6.50
2022-11-28T14:32:21.699Z,6.50
2022-11-28T14:36:03.079Z,6.60
2022-11-28T14:39:35.748Z,6.60
2022-11-28T14:43:28.183Z,6.70
2022-11-28T14:47:08.041Z,6.70
2022-11-28T14:50:48.558Z,6.80
2022-11-28T14:54:23.036Z,6.80
2022-11-28T14:57:58.991Z,6.80
2022-11-28T15:01:37.146Z,6.80
2022-11-28T15:05:19.052Z,6.80
2022-11-28T15:09:00.122Z,6.90
2022-11-28T15:12:29.749Z,6.80
2022-11-28T15:15:54.339Z,6.80
2022-11-28T15:19:24.382Z,6.70
2022-11-28T15:22:48.237Z,6.80
2022-11-28T15:26:21.262Z,6.80
2022-11-28T15:29:54.947Z,6.80
2022-11-28T15:33:19.411Z,6.80
2022-11-28T15:36:44.860Z,6.70
2022-11-28T15:40:21.150Z,6.60
2022-11-28T15:43:47.169Z,6.50
2022-11-28T15:47:19.149Z,6.50
2022-11-28T15:50:52.074Z,6.50
2022-11-28T15:54:35.239Z,6.40
2022-11-28T15:58:20.197Z,6.40
2022-11-28T16:01:44.264Z,6.30
2022-11-28T16:05:15.870Z,6.50
2022-11-28T16:08:48.472Z,6.40
2022-11-28T16:12:16.491Z,6.40
2022-11-28T16:15:42.147Z,6.40
2022-11-28T16:19:22.112Z,6.50
2022-11-28T16:22:47.238Z,6.50
2022-11-28T16:26:24.992Z,6.50
2022-11-28T16:29:50.306Z,6.50
2022-11-28T16:33:39.844Z,6.40
2022-11-28T16:37:11.791Z,6.40
2022-11-28T16:40:37.058Z,6.40
2022-11-28T16:44:03.781Z,6.40
2022-11-28T16:47:33.470Z,6.40
2022-11-28T16:51:33.992Z,6.50
2022-11-28T16:55:01.169Z,6.50
2022-11-28T16:58:25.999Z,6.60
2022-11-28T17:01:53.129Z,6.50
2022-11-28T17:05:18.391Z,6.70
2022-11-28T17:08:42.017Z,6.60
2022-11-28T17:12:07.972Z,6.70
2022-11-28T17:15:31.840Z,6.80
2022-11-28T17:18:55.428Z,6.70
2022-11-28T17:22:23.210Z,6.70
2022-11-28T17:25:47.200Z,6.60
2022-11-28T17:29:12.278Z,6.60
2022-11-28T17:32:36.028Z,6.50
2022-11-28T17:36:01.110Z,6.40
2022-11-28T17:39:27.340Z,6.40
2022-11-28T17:42:50.938Z,6.50
2022-11-28T17:46:14.582Z,6.40
2022-11-28T17:49:43.082Z,6.50
2022-11-28T17:53:10.775Z,6.60
2022-11-28T17:56:35.754Z,6.60
2022-11-28T18:00:00.620Z,6.70
2022-11-28T18:03:24.330Z,6.80
2022-11-28T18:06:49.125Z,6.90
2022-11-28T18:10:13.432Z,6.90
2022-11-28T18:13:38.703Z,6.90
2022-11-28T18:17:02.388Z,7.00
2022-11-28T18:20:28.488Z,7.00
2022-11-28T18:23:52.220Z,7.10
2022-11-28T18:27:15.995Z,7.10
2022-11-28T18:30:43.986Z,7.20
2022-11-28T18:34:10.176Z,7.20
2022-11-28T18:37:33.879Z,7.20
2022-11-28T18:40:57.564Z,7.20
2022-11-28T18:44:22.440Z,7.20
2022-11-28T18:47:48.256Z,7.20
2022-11-28T18:51:13.136Z,7.20
2022-11-28T18:54:38.365Z,7.20
2022-11-28T18:58:02.035Z,7.10
2022-11-28T19:01:28.367Z,7.10
2022-11-28T19:04:53.571Z,6.90
2022-11-28T19:08:17.449Z,6.90
2022-11-28T19:11:42.088Z,6.90
2022-11-28T19:15:07.783Z,7.00
2022-11-28T19:18:32.832Z,7.00
2022-11-28T19:21:58.631Z,7.00
2022-11-28T19:25:22.669Z,6.90
2022-11-28T19:28:46.977Z,7.00
2022-11-28T19:32:10.908Z,6.90
2022-11-28T19:35:34.879Z,7.00
2022-11-28T19:39:00.470Z,7.00
2022-11-28T19:42:25.789Z,7.00
2022-11-28T19:45:56.752Z,7.10
2022-11-28T19:49:26.476Z,7.10
2022-11-28T19:52:52.802Z,7.00
2022-11-28T19:56:25.280Z,6.90
2022-11-28T20:00:16.105Z,6.70
2022-11-28T20:03:49.799Z,6.60
2022-11-28T20:07:14.136Z,6.60
2022-11-28T20:10:40.510Z,6.60
2022-11-28T20:14:10.855Z,6.50
2022-11-28T20:17:43.773Z,6.50
2022-11-28T20:21:11.912Z,6.40
2022-11-28T20:24:49.809Z,6.40
2022-11-28T20:28:14.174Z,6.40
2022-11-28T20:31:46.199Z,6.50
2022-11-28T20:35:12.738Z,6.60
2022-11-28T20:38:39.401Z,6.70
2022-11-28T20:42:03.013Z,6.80
2022-11-28T20:45:29.081Z,7.00
2022-11-28T20:48:59.556Z,7.10
2022-11-28T20:52:28.161Z,7.20
2022-11-28T20:56:01.821Z,7.20
2022-11-28T20:59:26.659Z,7.40
2022-11-28T21:02:54.932Z,7.40
2022-11-28T21:06:23.271Z,7.30
2022-11-28T21:09:49.504Z,7.40
2022-11-28T21:13:18.478Z,7.30
2022-11-28T21:16:52.462Z,7.30
2022-11-28T21:20:18.524Z,7.30
2022-11-28T21:23:50.940Z,7.30
2022-11-28T21:27:14.950Z,7.40
2022-11-28T21:30:46.105Z,7.40
2022-11-28T21:34:22.347Z,7.40
2022-11-28T21:37:47.346Z,7.40
2022-11-28T21:41:14.636Z,7.40
2022-11-28T21:44:39.204Z,7.40
2022-11-28T21:48:03.967Z,7.40
2022-11-28T21:51:28.493Z,7.40
2022-11-28T21:54:53.548Z,7.40
2022-11-28T21:58:21.208Z,7.30
2022-11-28T22:01:48.928Z,7.40
2022-11-28T22:05:12.494Z,7.50
2022-11-28T22:08:36.562Z,7.50
2022-11-28T22:12:00.201Z,7.50
2022-11-28T22:15:25.364Z,7.40
2022-11-28T22:18:51.222Z,7.40
2022-11-28T22:22:15.422Z,7.20
2022-11-28T22:25:41.843Z,7.20
2022-11-28T22:29:05.644Z,7.20
2022-11-28T22:32:30.869Z,7.20
2022-11-28T22:35:54.686Z,7.10
2022-11-28T22:39:18.533Z,7.10
2022-11-28T22:42:42.309Z,7.20
2022-11-28T22:46:07.080Z,7.30
2022-11-28T22:49:32.200Z,7.20
2022-11-28T22:52:55.882Z,7.20
2022-11-28T22:56:19.715Z,7.30
2022-11-28T22:59:43.268Z,7.30
2022-11-28T23:03:07.021Z,7.30
2022-11-28T23:06:34.246Z,7.30
2022-11-28T23:09:58.111Z,7.30
2022-11-28T23:13:21.700Z,7.40
2022-11-28T23:16:46.365Z,7.50
2022-11-28T23:20:11.096Z,7.40
2022-11-28T23:23:36.793Z,7.40
2022-11-28T23:27:00.430Z,7.40
2022-11-28T23:30:25.330Z,7.30
2022-11-28T23:33:49.827Z,7.30
2022-11-28T23:37:13.324Z,7.40
2022-11-28T23:40:38.250Z,7.40
2022-11-28T23:44:01.868Z,7.40
2022-11-28T23:47:25.425Z,7.30
2022-11-28T23:50:49.032Z,7.30
2022-11-28T23:54:13.256Z,7.20
2022-11-28T23:57:38.106Z,7.30
